createdAt,value
2023-09-17T00:00:04.565Z,92.57
2023-09-17T00:01:04.533Z,91.86
2023-09-17T00:02:04.568Z,91.75
2023-09-17T00:03:04.600Z,91.45
2023-09-17T00:04:04.637Z,90.39
2023-09-17T00:05:04.497Z,91.25
2023-09-17T00:06:04.489Z,90.84
2023-09-17T00:07:04.488Z,90.84
2023-09-17T00:08:04.455Z,91.25
2023-09-17T00:09:04.445Z,90.53
2023-09-17T00:10:04.431Z,91.14
2023-09-17T00:11:04.442Z,90.44
2023-09-17T00:12:04.414Z,90.53
2023-09-17T00:13:04.400Z,89.83
2023-09-17T00:14:04.382Z,90.23
2023-09-17T00:15:04.414Z,90.13
2023-09-17T00:16:04.410Z,90.44
2023-09-17T00:17:04.446Z,89.62
2023-09-17T00:18:04.373Z,90.53
2023-09-17T00:19:04.337Z,90.13
2023-09-17T00:20:04.404Z,90.94
2023-09-17T00:21:04.313Z,90.44
2023-09-17T00:22:04.302Z,90.39
2023-09-17T00:23:04.325Z,90.74
2023-09-17T00:24:04.277Z,91.86
2023-09-17T00:25:04.271Z,90.84
2023-09-17T00:26:04.277Z,91.65
2023-09-17T00:27:04.251Z,90.84
2023-09-17T00:28:04.241Z,90.74
2023-09-17T00:29:04.228Z,90.94
2023-09-17T00:30:04.218Z,90.94
2023-09-17T00:31:04.278Z,90.44
2023-09-17T00:32:04.199Z,90.94
2023-09-17T00:33:04.206Z,90.84
2023-09-17T00:34:04.167Z,90.74
2023-09-17T00:35:04.165Z,90.13
2023-09-17T00:36:04.187Z,90.44
2023-09-17T00:37:04.175Z,89.72
2023-09-17T00:38:04.138Z,89.07
2023-09-17T00:39:04.108Z,89.68
2023-09-17T00:40:04.096Z,90.23
2023-09-17T00:41:04.098Z,89.68
2023-09-17T00:42:04.097Z,90.44
2023-09-17T00:43:04.074Z,89.78
2023-09-17T00:44:04.081Z,90.39
2023-09-17T00:45:04.050Z,90.23
2023-09-17T00:46:04.054Z,91.00
2023-09-17T00:47:04.111Z,90.44
2023-09-17T00:48:04.080Z,89.42
2023-09-17T00:49:04.003Z,90.59
2023-09-17T00:50:04.015Z,91.05
2023-09-17T00:51:03.985Z,90.74
2023-09-17T00:52:04.025Z,90.74
2023-09-17T00:53:03.973Z,91.25
2023-09-17T00:54:03.941Z,91.65
2023-09-17T00:55:03.931Z,91.25
2023-09-17T00:56:03.917Z,89.92
2023-09-17T00:57:03.910Z,90.03
2023-09-17T00:58:03.913Z,92.26
2023-09-17T00:59:03.888Z,91.75
2023-09-17T01:00:03.879Z,91.75
2023-09-17T01:01:03.884Z,91.45
2023-09-17T01:02:04.001Z,91.25
2023-09-17T01:03:04.063Z,90.09
2023-09-17T01:04:03.959Z,89.58
2023-09-17T01:05:03.840Z,89.58
2023-09-17T01:06:03.835Z,90.70
2023-09-17T01:07:03.810Z,89.98
2023-09-17T01:08:03.887Z,90.13
2023-09-17T01:09:03.784Z,89.72
2023-09-17T01:10:03.775Z,90.49
2023-09-17T01:11:03.779Z,90.39
2023-09-17T01:12:03.766Z,91.61
2023-09-17T01:13:03.738Z,91.20
2023-09-17T01:14:03.730Z,90.80
2023-09-17T01:15:03.736Z,91.82
2023-09-17T01:16:03.735Z,91.86
2023-09-17T01:17:03.731Z,91.51
2023-09-17T01:18:03.749Z,91.20
2023-09-17T01:19:03.687Z,91.41
2023-09-17T01:20:03.663Z,90.90
2023-09-17T01:21:03.658Z,91.41
2023-09-17T01:22:03.640Z,91.71
2023-09-17T01:23:03.653Z,91.65
2023-09-17T01:24:03.653Z,90.70
2023-09-17T01:25:03.613Z,90.90
2023-09-17T01:26:03.714Z,90.19
2023-09-17T01:27:03.586Z,90.49
2023-09-17T01:28:03.582Z,90.19
2023-09-17T01:29:03.569Z,90.70
2023-09-17T01:30:03.555Z,91.00
2023-09-17T01:31:03.548Z,90.70
2023-09-17T01:32:03.545Z,90.80
2023-09-17T01:33:03.532Z,90.70
2023-09-17T01:34:03.552Z,90.70
2023-09-17T01:35:03.516Z,91.56
2023-09-17T01:36:03.495Z,91.36
2023-09-17T01:37:03.478Z,91.71
2023-09-17T01:38:03.484Z,92.12
2023-09-17T01:39:03.457Z,91.47
2023-09-17T01:40:03.486Z,90.80
2023-09-17T01:41:03.440Z,90.90
2023-09-17T01:42:03.422Z,91.91
2023-09-17T01:43:03.429Z,91.00
2023-09-17T01:44:03.419Z,91.41
2023-09-17T01:45:03.394Z,90.90
2023-09-17T01:46:03.430Z,90.49
2023-09-17T01:47:03.369Z,90.19
2023-09-17T01:48:03.389Z,89.94
2023-09-17T01:49:03.355Z,91.26
2023-09-17T01:50:03.331Z,90.66
2023-09-17T01:51:03.339Z,90.55
2023-09-17T01:52:03.312Z,90.96
2023-09-17T01:53:03.306Z,89.88
2023-09-17T01:54:03.292Z,89.64
2023-09-17T01:55:03.279Z,89.68
2023-09-17T01:56:03.324Z,89.74
2023-09-17T01:57:03.253Z,88.73
2023-09-17T01:58:03.293Z,89.78
2023-09-17T01:59:03.259Z,91.06
2023-09-17T02:00:03.224Z,89.78
2023-09-17T02:01:03.246Z,90.49
2023-09-17T02:02:03.300Z,91.87
2023-09-17T02:03:03.258Z,91.41
2023-09-17T02:04:03.237Z,91.20
2023-09-17T02:05:03.170Z,90.05
2023-09-17T02:06:03.161Z,90.35
2023-09-17T02:07:03.169Z,90.80
2023-09-17T02:08:03.139Z,91.56
2023-09-17T02:09:03.127Z,90.86
2023-09-17T02:10:03.110Z,91.77
2023-09-17T02:11:03.122Z,91.51
2023-09-17T02:12:03.131Z,90.90
2023-09-17T02:13:03.090Z,91.51
2023-09-17T02:14:03.070Z,90.09
2023-09-17T02:15:03.054Z,90.66
2023-09-17T02:16:03.095Z,89.78
2023-09-17T02:17:03.033Z,90.49
2023-09-17T02:18:03.052Z,89.58
2023-09-17T02:19:03.018Z,91.20
2023-09-17T02:20:03.005Z,89.17
2023-09-17T02:21:02.983Z,90.90
2023-09-17T02:22:02.973Z,90.66
2023-09-17T02:23:02.963Z,90.70
2023-09-17T02:24:02.961Z,90.45
2023-09-17T02:25:03.010Z,90.45
2023-09-17T02:26:02.941Z,90.59
2023-09-17T02:27:02.917Z,90.39
2023-09-17T02:28:02.939Z,91.61
2023-09-17T02:29:02.897Z,90.90
2023-09-17T02:30:02.877Z,90.90
2023-09-17T02:31:02.915Z,90.80
2023-09-17T02:32:02.956Z,90.45
2023-09-17T02:33:02.918Z,91.20
2023-09-17T02:34:02.833Z,91.61
2023-09-17T02:35:02.875Z,90.90
2023-09-17T02:36:02.839Z,90.09
2023-09-17T02:37:02.817Z,89.88
2023-09-17T02:38:02.785Z,89.98
2023-09-17T02:39:02.785Z,90.66
2023-09-17T02:40:02.793Z,91.36
2023-09-17T02:41:02.754Z,90.70
2023-09-17T02:42:02.740Z,89.74
2023-09-17T02:43:02.744Z,89.54
2023-09-17T02:44:02.769Z,89.03
2023-09-17T02:45:02.748Z,88.62
2023-09-17T02:46:02.710Z,89.84
2023-09-17T02:47:02.769Z,89.48
2023-09-17T02:48:02.708Z,89.84
2023-09-17T02:49:02.682Z,89.33
2023-09-17T02:50:02.673Z,88.93
2023-09-17T02:51:02.649Z,88.73
2023-09-17T02:52:02.640Z,89.74
2023-09-17T02:53:02.644Z,90.90
2023-09-17T02:54:02.701Z,90.75
2023-09-17T02:55:02.605Z,90.86
2023-09-17T02:56:02.594Z,90.75
2023-09-17T02:57:02.604Z,90.14
2023-09-17T02:58:02.566Z,90.35
2023-09-17T02:59:02.557Z,91.51
2023-09-17T03:00:02.582Z,91.82
2023-09-17T03:01:02.567Z,91.51
2023-09-17T03:02:02.659Z,91.41
2023-09-17T03:03:02.664Z,90.59
2023-09-17T03:04:02.505Z,90.80
2023-09-17T03:05:02.530Z,90.86
2023-09-17T03:06:02.484Z,90.75
2023-09-17T03:07:02.482Z,90.80
2023-09-17T03:08:02.459Z,89.98
2023-09-17T03:09:02.448Z,89.54
2023-09-17T03:10:02.457Z,90.55
2023-09-17T03:11:02.443Z,90.70
2023-09-17T03:12:02.421Z,90.75
2023-09-17T03:13:02.407Z,91.56
2023-09-17T03:14:02.459Z,91.71
2023-09-17T03:15:02.382Z,91.97
2023-09-17T03:16:02.409Z,91.77
2023-09-17T03:17:02.522Z,91.61
2023-09-17T03:18:02.381Z,92.02
2023-09-17T03:19:02.354Z,91.41
2023-09-17T03:20:02.327Z,91.82
2023-09-17T03:21:02.322Z,91.30
2023-09-17T03:22:02.302Z,91.51
2023-09-17T03:23:02.309Z,91.41
2023-09-17T03:24:02.279Z,90.55
2023-09-17T03:25:04.735Z,91.51
2023-09-17T03:26:02.258Z,91.77
2023-09-17T03:27:02.246Z,91.51
2023-09-17T03:28:02.260Z,90.86
2023-09-17T03:29:02.266Z,90.25
2023-09-17T03:30:02.234Z,91.06
2023-09-17T03:31:02.277Z,90.05
2023-09-17T03:32:02.252Z,90.35
2023-09-17T03:33:05.465Z,90.96
2023-09-17T03:34:02.186Z,91.47
2023-09-17T03:35:02.209Z,91.67
2023-09-17T03:36:02.160Z,91.77
2023-09-17T03:37:02.133Z,90.75
2023-09-17T03:38:02.144Z,90.35
2023-09-17T03:39:02.141Z,89.94
2023-09-17T03:40:02.113Z,90.45
2023-09-17T03:41:02.086Z,90.55
2023-09-17T03:42:02.090Z,89.94
2023-09-17T03:43:02.080Z,90.75
2023-09-17T03:44:02.075Z,91.56
2023-09-17T03:45:02.074Z,91.56
2023-09-17T03:46:02.053Z,91.36
2023-09-17T03:47:02.112Z,91.06
2023-09-17T03:48:02.113Z,90.35
2023-09-17T03:49:02.013Z,89.74
2023-09-17T03:50:02.024Z,89.74
2023-09-17T03:51:01.998Z,90.14
2023-09-17T03:52:01.975Z,90.35
2023-09-17T03:53:01.960Z,90.05
2023-09-17T03:54:01.957Z,89.64
2023-09-17T03:55:01.928Z,91.47
2023-09-17T03:56:01.936Z,91.26
2023-09-17T03:57:01.921Z,91.36
2023-09-17T03:58:01.907Z,90.45
2023-09-17T03:59:01.935Z,90.41
2023-09-17T04:00:01.907Z,90.20
2023-09-17T04:01:01.887Z,91.36
2023-09-17T04:02:01.936Z,90.81
2023-09-17T04:03:01.884Z,90.00
2023-09-17T04:04:01.909Z,89.59
2023-09-17T04:05:01.859Z,89.64
2023-09-17T04:06:01.811Z,90.35
2023-09-17T04:07:01.818Z,90.71
2023-09-17T04:08:01.790Z,90.20
2023-09-17T04:09:01.789Z,90.81
2023-09-17T04:10:01.771Z,88.99
2023-09-17T04:11:01.764Z,89.33
2023-09-17T04:12:01.746Z,89.50
2023-09-17T04:13:01.733Z,89.50
2023-09-17T04:14:01.768Z,90.61
2023-09-17T04:15:01.706Z,91.02
2023-09-17T04:16:01.716Z,91.73
2023-09-17T04:17:01.785Z,92.44
2023-09-17T04:18:01.775Z,91.52
2023-09-17T04:19:01.663Z,90.00
2023-09-17T04:20:01.702Z,90.00
2023-09-17T04:21:01.655Z,90.51
2023-09-17T04:22:01.634Z,90.81
2023-09-17T04:23:01.622Z,90.96
2023-09-17T04:24:01.608Z,90.55
2023-09-17T04:25:01.598Z,90.81
2023-09-17T04:26:01.602Z,90.00
2023-09-17T04:27:01.574Z,89.80
2023-09-17T04:28:01.564Z,90.61
2023-09-17T04:29:01.560Z,91.42
2023-09-17T04:30:01.547Z,91.42
2023-09-17T04:31:01.526Z,90.92
2023-09-17T04:32:01.634Z,91.16
2023-09-17T04:33:01.574Z,90.51
2023-09-17T04:34:01.501Z,91.83
2023-09-17T04:35:01.494Z,92.84
2023-09-17T04:36:01.526Z,92.64
2023-09-17T04:37:01.465Z,90.14
2023-09-17T04:38:01.485Z,90.55
2023-09-17T04:39:01.462Z,90.75
2023-09-17T04:40:01.438Z,91.56
2023-09-17T04:41:01.479Z,90.75
2023-09-17T04:42:01.416Z,91.41
2023-09-17T04:43:01.415Z,91.82
2023-09-17T04:44:01.417Z,91.97
2023-09-17T04:45:01.387Z,91.61
2023-09-17T04:46:01.420Z,90.90
2023-09-17T04:47:02.483Z,92.52
2023-09-17T04:48:01.421Z,92.93
2023-09-17T04:49:01.340Z,92.83
2023-09-17T04:50:01.366Z,91.77
2023-09-17T04:51:01.317Z,93.29
2023-09-17T04:52:01.373Z,92.38
2023-09-17T04:53:01.290Z,92.12
2023-09-17T04:54:01.300Z,92.83
2023-09-17T04:55:01.270Z,93.74
2023-09-17T04:56:01.258Z,93.60
2023-09-17T04:57:01.248Z,93.95
2023-09-17T04:58:01.246Z,93.74
2023-09-17T04:59:01.229Z,93.60
2023-09-17T05:00:01.233Z,94.96
2023-09-17T05:01:01.202Z,95.17
2023-09-17T05:02:01.293Z,95.06
2023-09-17T05:03:01.258Z,95.17
2023-09-17T05:04:01.283Z,95.37
2023-09-17T05:05:01.178Z,96.59
2023-09-17T05:06:01.155Z,96.99
2023-09-17T05:07:01.143Z,96.59
2023-09-17T05:08:01.161Z,96.59
2023-09-17T05:09:01.126Z,97.85
2023-09-17T05:10:01.112Z,99.07
2023-09-17T05:11:01.136Z,99.99
2023-09-17T05:12:01.116Z,98.91
2023-09-17T05:13:01.083Z,98.66
2023-09-17T05:14:01.080Z,99.38
2023-09-17T05:15:01.070Z,98.46
2023-09-17T05:16:01.070Z,98.46
2023-09-17T05:17:01.136Z,95.82
2023-09-17T05:18:01.048Z,96.63
2023-09-17T05:19:01.019Z,95.41
2023-09-17T05:20:01.045Z,98.05
2023-09-17T05:21:00.988Z,96.33
2023-09-17T05:22:00.979Z,96.33
2023-09-17T05:23:01.045Z,96.08
2023-09-17T05:24:01.024Z,96.23
2023-09-17T05:25:00.946Z,96.43
2023-09-17T05:26:00.962Z,95.72
2023-09-17T05:27:00.912Z,95.78
2023-09-17T05:28:00.910Z,95.98
2023-09-17T05:29:01.010Z,95.57
2023-09-17T05:30:00.907Z,95.67
2023-09-17T05:31:00.868Z,96.48
2023-09-17T05:32:00.941Z,95.67
2023-09-17T05:33:00.863Z,95.57
2023-09-17T05:34:00.833Z,95.94
2023-09-17T05:35:00.860Z,95.57
2023-09-17T05:36:00.826Z,95.17
2023-09-17T05:37:00.817Z,94.86
2023-09-17T05:38:00.836Z,94.76
2023-09-17T05:39:03.106Z,95.78
2023-09-17T05:40:00.805Z,95.26
2023-09-17T05:41:00.784Z,95.26
2023-09-17T05:42:00.750Z,94.61
2023-09-17T05:43:00.745Z,94.92
2023-09-17T05:44:00.780Z,94.71
2023-09-17T05:45:00.729Z,95.02
2023-09-17T05:46:00.793Z,94.31
2023-09-17T05:47:00.751Z,93.15
2023-09-17T05:48:00.733Z,93.19
2023-09-17T05:49:00.688Z,92.44
2023-09-17T05:50:00.894Z,93.15
2023-09-17T05:51:00.663Z,93.45
2023-09-17T05:52:00.648Z,93.76
2023-09-17T05:53:00.689Z,94.06
2023-09-17T05:54:00.629Z,92.74
2023-09-17T05:55:00.618Z,93.05
2023-09-17T05:56:00.679Z,93.35
2023-09-17T05:57:00.583Z,92.84
2023-09-17T05:58:00.576Z,92.40
2023-09-17T05:59:00.618Z,92.80
2023-09-17T06:00:00.547Z,92.74
2023-09-17T06:01:00.556Z,91.48
2023-09-17T06:02:00.667Z,92.80
2023-09-17T06:03:00.645Z,92.29
2023-09-17T06:04:00.541Z,93.00
2023-09-17T06:05:01.332Z,92.90
2023-09-17T06:06:00.504Z,92.29
2023-09-17T06:07:00.472Z,92.80
2023-09-17T06:08:00.506Z,92.09
2023-09-17T06:09:00.458Z,93.26
2023-09-17T06:10:00.435Z,93.46
2023-09-17T06:11:00.463Z,92.86
2023-09-17T06:12:00.458Z,93.06
2023-09-17T06:13:00.404Z,93.32
2023-09-17T06:14:00.398Z,92.47
2023-09-17T06:15:00.384Z,92.67
2023-09-17T06:16:00.453Z,93.03
2023-09-17T06:17:00.386Z,92.02
2023-09-17T06:18:00.361Z,90.20
2023-09-17T06:19:00.339Z,87.73
2023-09-17T06:20:00.440Z,88.02
2023-09-17T06:21:00.334Z,88.19
2023-09-17T06:22:00.307Z,88.09
2023-09-17T06:23:00.371Z,86.98
2023-09-17T06:24:00.290Z,86.37
2023-09-17T06:25:00.268Z,86.87
2023-09-17T06:26:00.313Z,87.04
2023-09-17T06:27:00.261Z,86.98
2023-09-17T06:28:00.310Z,86.91
2023-09-17T06:29:00.253Z,88.37
2023-09-17T06:30:00.258Z,87.82
2023-09-17T06:31:00.311Z,86.98
2023-09-17T06:32:00.281Z,88.15
2023-09-17T06:33:00.239Z,85.72
2023-09-17T06:34:00.187Z,84.97
2023-09-17T06:35:00.237Z,85.03
2023-09-17T06:36:00.179Z,86.41
2023-09-17T06:37:00.139Z,86.00
2023-09-17T06:38:00.179Z,84.29
2023-09-17T06:39:00.113Z,83.78
2023-09-17T06:40:00.191Z,85.40
2023-09-17T06:41:00.181Z,83.78
2023-09-17T06:42:00.082Z,84.65
2023-09-17T06:43:00.067Z,82.73
2023-09-17T06:44:00.217Z,82.37
2023-09-17T06:45:00.046Z,83.78
2023-09-17T06:46:00.054Z,82.81
2023-09-17T06:47:00.118Z,84.33
2023-09-17T06:48:00.058Z,84.47
2023-09-17T06:49:00.009Z,83.66
2023-09-17T06:50:00.020Z,85.68
2023-09-17T06:50:59.984Z,87.24
2023-09-17T06:52:00.007Z,88.04
2023-09-17T06:52:59.996Z,87.74
2023-09-17T06:53:59.945Z,87.13
2023-09-17T06:54:59.931Z,86.99
2023-09-17T06:55:59.957Z,87.30
2023-09-17T06:56:59.921Z,87.64
2023-09-17T06:57:59.901Z,87.64
2023-09-17T06:58:59.941Z,88.49
2023-09-17T07:00:00.060Z,87.08
2023-09-17T07:00:59.900Z,86.27
2023-09-17T07:01:59.916Z,86.73
2023-09-17T07:02:59.881Z,85.54
2023-09-17T07:03:59.889Z,85.30
2023-09-17T07:04:59.899Z,85.58
2023-09-17T07:05:59.806Z,85.74
2023-09-17T07:06:59.808Z,86.87
2023-09-17T07:07:59.895Z,84.71
2023-09-17T07:08:59.780Z,84.91
2023-09-17T07:09:59.772Z,85.17
2023-09-17T07:10:59.780Z,84.41
2023-09-17T07:11:59.757Z,84.57
2023-09-17T07:12:59.741Z,82.86
2023-09-17T07:14:00.711Z,84.67
2023-09-17T07:14:59.729Z,83.02
2023-09-17T07:15:59.757Z,82.04
2023-09-17T07:16:59.749Z,82.90
2023-09-17T07:17:59.707Z,79.64
2023-09-17T07:18:59.670Z,80.08
2023-09-17T07:19:59.708Z,79.79
2023-09-17T07:20:59.663Z,79.68
2023-09-17T07:21:59.652Z,78.27
2023-09-17T07:22:59.699Z,79.38
2023-09-17T07:23:59.625Z,79.58
2023-09-17T07:24:59.609Z,78.61
2023-09-17T07:25:59.649Z,78.01
2023-09-17T07:26:59.600Z,77.70
2023-09-17T07:27:59.585Z,79.85
2023-09-17T07:28:59.612Z,79.64
2023-09-17T07:29:59.546Z,78.60
2023-09-17T07:30:59.564Z,78.74
2023-09-17T07:31:59.579Z,78.84
2023-09-17T07:32:59.578Z,78.70
2023-09-17T07:33:59.522Z,77.80
2023-09-17T07:34:59.517Z,77.39
2023-09-17T07:35:59.513Z,77.00
2023-09-17T07:36:59.477Z,77.50
2023-09-17T07:37:59.499Z,79.73
2023-09-17T07:38:59.449Z,77.92
2023-09-17T07:39:59.436Z,75.55
2023-09-17T07:40:59.500Z,78.16
2023-09-17T07:41:59.419Z,77.96
2023-09-17T07:42:59.414Z,78.66
2023-09-17T07:43:59.441Z,76.89
2023-09-17T07:44:59.382Z,75.68
2023-09-17T07:45:59.416Z,78.35
2023-09-17T07:46:59.484Z,77.51
2023-09-17T07:47:59.466Z,75.71
2023-09-17T07:48:59.353Z,78.11
2023-09-17T07:49:59.395Z,79.42
2023-09-17T07:50:59.321Z,76.41
2023-09-17T07:51:59.310Z,79.32
2023-09-17T07:52:59.341Z,78.11
2023-09-17T07:53:59.300Z,75.57
2023-09-17T07:54:59.285Z,75.21
2023-09-17T07:55:59.338Z,75.04
2023-09-17T07:56:59.254Z,76.65
2023-09-17T07:57:59.246Z,75.84
2023-09-17T07:58:59.241Z,75.60
2023-09-17T07:59:59.329Z,72.53
2023-09-17T08:00:59.222Z,73.13
2023-09-17T08:01:59.323Z,72.63
2023-09-17T08:02:59.416Z,72.94
2023-09-17T08:03:59.266Z,70.59
2023-09-17T08:04:59.211Z,71.50
2023-09-17T08:05:59.185Z,74.67
2023-09-17T08:06:59.147Z,75.34
2023-09-17T08:07:59.189Z,74.80
2023-09-17T08:08:59.149Z,75.40
2023-09-17T08:09:59.615Z,71.06
2023-09-17T08:10:59.188Z,72.50
2023-09-17T08:11:59.089Z,71.63
2023-09-17T08:12:59.095Z,73.13
2023-09-17T08:13:59.162Z,71.43
2023-09-17T08:14:59.089Z,73.19
2023-09-17T08:15:59.053Z,71.93
2023-09-17T08:16:59.138Z,72.93
2023-09-17T08:17:59.082Z,74.93
2023-09-17T08:18:59.022Z,76.20
2023-09-17T08:19:59.079Z,69.49
2023-09-17T08:20:58.990Z,73.40
2023-09-17T08:21:58.986Z,74.10
2023-09-17T08:22:59.001Z,76.41
2023-09-17T08:23:58.966Z,72.80
2023-09-17T08:24:58.952Z,71.03
2023-09-17T08:25:59.009Z,71.73
2023-09-17T08:26:58.930Z,75.92
2023-09-17T08:27:58.918Z,75.68
2023-09-17T08:28:58.947Z,74.88
2023-09-17T08:29:58.895Z,79.55
2023-09-17T08:30:58.962Z,77.91
2023-09-17T08:31:58.926Z,72.50
2023-09-17T08:32:58.927Z,74.67
2023-09-17T08:33:58.842Z,69.32
2023-09-17T08:34:58.871Z,72.60
2023-09-17T08:35:58.866Z,68.92
2023-09-17T08:36:58.824Z,73.27
2023-09-17T08:37:58.842Z,75.30
2023-09-17T08:38:58.823Z,72.16
2023-09-17T08:39:58.778Z,73.66
2023-09-17T08:40:58.808Z,74.23
2023-09-17T08:41:58.773Z,74.73
2023-09-17T08:42:58.751Z,77.44
2023-09-17T08:43:58.748Z,74.70
2023-09-17T08:44:58.724Z,75.43
2023-09-17T08:45:58.768Z,73.36
2023-09-17T08:46:58.728Z,74.94
2023-09-17T08:47:58.737Z,73.10
2023-09-17T08:48:58.688Z,72.53
2023-09-17T08:49:58.720Z,71.16
2023-09-17T08:50:58.664Z,72.30
2023-09-17T08:51:58.686Z,73.47
2023-09-17T08:52:58.670Z,73.17
2023-09-17T08:53:58.643Z,73.03
2023-09-17T08:54:58.614Z,72.13
2023-09-17T08:55:58.724Z,70.93
2023-09-17T08:56:58.596Z,70.23
2023-09-17T08:57:58.612Z,72.77
2023-09-17T08:58:58.589Z,73.33
2023-09-17T08:59:58.577Z,70.93
2023-09-17T09:00:58.548Z,72.93
2023-09-17T09:01:58.619Z,73.19
2023-09-17T09:02:58.638Z,68.99
2023-09-17T09:03:58.616Z,69.96
2023-09-17T09:04:58.585Z,69.62
2023-09-17T09:05:58.526Z,73.46
2023-09-17T09:06:58.484Z,69.66
2023-09-17T09:07:58.552Z,67.40
2023-09-17T09:08:58.482Z,68.05
2023-09-17T09:09:58.454Z,68.76
2023-09-17T09:10:59.588Z,72.30
2023-09-17T09:11:58.449Z,69.46
2023-09-17T09:12:58.425Z,70.53
2023-09-17T09:13:58.473Z,69.26
2023-09-17T09:14:58.399Z,69.39
2023-09-17T09:15:58.389Z,72.69
2023-09-17T09:16:58.422Z,72.46
2023-09-17T09:17:58.385Z,73.69
2023-09-17T09:18:58.353Z,70.79
2023-09-17T09:19:58.380Z,72.36
2023-09-17T09:20:58.362Z,68.96
2023-09-17T09:21:58.344Z,67.96
2023-09-17T09:22:58.327Z,69.29
2023-09-17T09:23:58.335Z,70.99
2023-09-17T09:24:58.283Z,69.62
2023-09-17T09:25:58.392Z,71.16
2023-09-17T09:26:58.269Z,71.66
2023-09-17T09:27:58.250Z,71.06
2023-09-17T09:28:58.323Z,70.86
2023-09-17T09:29:58.230Z,71.66
2023-09-17T09:30:58.216Z,72.72
2023-09-17T09:31:58.337Z,73.09
2023-09-17T09:32:58.273Z,69.09
2023-09-17T09:33:58.210Z,69.19
2023-09-17T09:34:58.232Z,72.99
2023-09-17T09:35:58.160Z,71.73
2023-09-17T09:36:58.144Z,72.89
2023-09-17T09:37:58.209Z,72.03
2023-09-17T09:38:58.124Z,73.69
2023-09-17T09:39:58.160Z,69.09
2023-09-17T09:40:58.129Z,69.99
2023-09-17T09:41:58.095Z,69.79
2023-09-17T09:42:58.113Z,68.93
2023-09-17T09:43:58.295Z,69.86
2023-09-17T09:44:58.069Z,68.66
2023-09-17T09:45:58.144Z,69.56
2023-09-17T09:46:58.065Z,70.43
2023-09-17T09:47:58.122Z,71.12
2023-09-17T09:48:58.028Z,72.22
2023-09-17T09:49:58.009Z,69.32
2023-09-17T09:50:57.998Z,69.53
2023-09-17T09:51:57.985Z,68.89
2023-09-17T09:52:58.001Z,67.43
2023-09-17T09:53:57.982Z,69.43
2023-09-17T09:54:57.952Z,71.09
2023-09-17T09:55:58.002Z,67.03
2023-09-17T09:56:57.935Z,69.29
2023-09-17T09:57:57.957Z,71.29
2023-09-17T09:58:57.953Z,69.36
2023-09-17T09:59:57.920Z,68.76
2023-09-17T10:00:57.893Z,68.49
2023-09-17T10:01:57.903Z,67.89
2023-09-17T10:02:57.977Z,68.82
2023-09-17T10:03:57.967Z,68.62
2023-09-17T10:04:57.932Z,70.12
2023-09-17T10:05:57.846Z,70.83
2023-09-17T10:06:57.816Z,71.56
2023-09-17T10:07:57.837Z,69.66
2023-09-17T10:08:57.818Z,70.53
2023-09-17T10:09:57.803Z,74.32
2023-09-17T10:10:57.815Z,70.42
2023-09-17T10:11:57.807Z,69.43
2023-09-17T10:12:57.754Z,71.52
2023-09-17T10:13:57.758Z,68.66
2023-09-17T10:14:57.751Z,72.72
2023-09-17T10:15:57.748Z,70.56
2023-09-17T10:16:57.738Z,72.66
2023-09-17T10:17:57.707Z,70.69
2023-09-17T10:18:57.706Z,69.62
2023-09-17T10:19:57.701Z,71.49
2023-09-17T10:20:57.674Z,69.89
2023-09-17T10:21:57.686Z,70.62
2023-09-17T10:22:57.686Z,70.83
2023-09-17T10:23:57.638Z,71.89
2023-09-17T10:24:57.626Z,70.86
2023-09-17T10:25:57.641Z,70.03
2023-09-17T10:26:57.625Z,69.13
2023-09-17T10:27:57.627Z,68.73
2023-09-17T10:28:57.637Z,67.99
2023-09-17T10:29:57.585Z,68.39
2023-09-17T10:30:57.586Z,71.46
2023-09-17T10:31:57.674Z,70.53
2023-09-17T10:32:57.570Z,69.93
2023-09-17T10:33:57.532Z,67.90
2023-09-17T10:34:57.521Z,72.35
2023-09-17T10:35:57.603Z,67.93
2023-09-17T10:36:57.487Z,68.66
2023-09-17T10:37:57.560Z,68.70
2023-09-17T10:38:57.503Z,69.66
2023-09-17T10:39:57.455Z,69.46
2023-09-17T10:40:57.661Z,71.66
2023-09-17T10:41:57.441Z,72.59
2023-09-17T10:42:57.467Z,72.45
2023-09-17T10:43:57.499Z,68.63
2023-09-17T10:44:57.417Z,68.53
2023-09-17T10:45:57.405Z,69.23
2023-09-17T10:46:57.496Z,69.89
2023-09-17T10:47:57.404Z,68.73
2023-09-17T10:48:57.360Z,69.20
2023-09-17T10:49:57.474Z,69.39
2023-09-17T10:50:57.343Z,69.09
2023-09-17T10:51:57.330Z,67.86
2023-09-17T10:52:57.352Z,68.96
2023-09-17T10:53:57.309Z,70.49
2023-09-17T10:54:57.344Z,66.20
2023-09-17T10:55:57.452Z,66.24
2023-09-17T10:56:57.317Z,68.73
2023-09-17T10:57:57.345Z,69.79
2023-09-17T10:58:57.381Z,67.03
2023-09-17T10:59:57.311Z,70.32
2023-09-17T11:00:57.324Z,69.86
2023-09-17T11:01:57.327Z,67.40
2023-09-17T11:02:57.349Z,66.56
2023-09-17T11:03:57.294Z,66.80
2023-09-17T11:04:57.239Z,67.80
2023-09-17T11:05:57.178Z,66.70
2023-09-17T11:06:57.180Z,68.70
2023-09-17T11:07:57.185Z,68.40
2023-09-17T11:08:57.148Z,68.63
2023-09-17T11:09:57.146Z,69.20
2023-09-17T11:10:57.151Z,67.00
2023-09-17T11:11:57.128Z,65.90
2023-09-17T11:12:57.111Z,67.53
2023-09-17T11:13:57.133Z,67.66
2023-09-17T11:14:57.094Z,66.80
2023-09-17T11:15:57.179Z,66.30
2023-09-17T11:16:57.177Z,67.26
2023-09-17T11:17:57.209Z,66.93
2023-09-17T11:18:57.038Z,67.76
2023-09-17T11:19:57.072Z,66.43
2023-09-17T11:20:57.019Z,66.20
2023-09-17T11:21:57.009Z,66.17
2023-09-17T11:22:57.038Z,66.34
2023-09-17T11:23:57.002Z,65.44
2023-09-17T11:24:56.977Z,66.61
2023-09-17T11:25:57.017Z,67.47
2023-09-17T11:26:56.962Z,63.98
2023-09-17T11:27:56.970Z,66.24
2023-09-17T11:28:57.022Z,66.71
2023-09-17T11:29:56.939Z,66.77
2023-09-17T11:30:56.943Z,63.89
2023-09-17T11:31:57.039Z,64.09
2023-09-17T11:32:56.952Z,62.82
2023-09-17T11:33:56.890Z,64.04
2023-09-17T11:34:56.923Z,64.84
2023-09-17T11:35:56.881Z,64.12
2023-09-17T11:36:56.862Z,62.72
2023-09-17T11:37:56.888Z,63.82
2023-09-17T11:38:56.866Z,63.95
2023-09-17T11:39:56.822Z,65.34
2023-09-17T11:40:56.868Z,67.57
2023-09-17T11:41:56.824Z,64.12
2023-09-17T11:42:56.796Z,66.41
2023-09-17T11:43:56.833Z,67.07
2023-09-17T11:44:56.803Z,65.58
2023-09-17T11:45:56.833Z,64.81
2023-09-17T11:46:56.764Z,65.94
2023-09-17T11:47:56.863Z,64.28
2023-09-17T11:48:56.731Z,66.27
2023-09-17T11:49:56.794Z,66.67
2023-09-17T11:50:56.704Z,65.74
2023-09-17T11:51:56.698Z,63.78
2023-09-17T11:52:56.688Z,62.71
2023-09-17T11:53:56.659Z,63.57
2023-09-17T11:54:56.660Z,66.13
2023-09-17T11:55:56.711Z,65.01
2023-09-17T11:56:56.646Z,65.04
2023-09-17T11:57:56.611Z,65.44
2023-09-17T11:58:56.687Z,64.17
2023-09-17T11:59:56.614Z,67.40
2023-09-17T12:00:56.580Z,66.03
2023-09-17T12:01:56.675Z,66.24
2023-09-17T12:02:56.616Z,66.43
2023-09-17T12:03:56.706Z,66.17
2023-09-17T12:04:56.583Z,67.73
2023-09-17T12:05:56.526Z,67.73
2023-09-17T12:06:56.535Z,66.20
2023-09-17T12:07:56.524Z,66.70
2023-09-17T12:08:56.487Z,65.17
2023-09-17T12:09:56.501Z,66.37
2023-09-17T12:10:56.541Z,65.61
2023-09-17T12:11:56.485Z,65.87
2023-09-17T12:12:56.441Z,66.27
2023-09-17T12:13:56.558Z,66.37
2023-09-17T12:14:56.426Z,64.97
2023-09-17T12:15:56.412Z,66.57
2023-09-17T12:16:56.449Z,66.57
2023-09-17T12:17:56.432Z,67.73
2023-09-17T12:19:07.551Z,66.67
2023-09-17T12:19:57.442Z,66.34
2023-09-17T12:20:56.351Z,66.07
2023-09-17T12:21:56.369Z,67.63
2023-09-17T12:22:56.366Z,67.13
2023-09-17T12:23:56.357Z,66.07
2023-09-17T12:24:56.310Z,64.90
2023-09-17T12:25:56.325Z,66.80
2023-09-17T12:26:56.290Z,65.23
2023-09-17T12:27:56.272Z,63.84
2023-09-17T12:28:56.299Z,65.56
2023-09-17T12:29:56.257Z,68.26
2023-09-17T12:30:56.267Z,68.53
2023-09-17T12:31:56.288Z,66.24
2023-09-17T12:32:56.267Z,67.63
2023-09-17T12:33:56.204Z,66.53
2023-09-17T12:34:56.269Z,67.03
2023-09-17T12:35:56.223Z,66.93
2023-09-17T12:36:56.170Z,67.43
2023-09-17T12:37:56.227Z,67.83
2023-09-17T12:38:56.146Z,68.83
2023-09-17T12:39:56.158Z,66.33
2023-09-17T12:40:56.183Z,66.47
2023-09-17T12:41:56.163Z,67.73
2023-09-17T12:42:56.126Z,66.53
2023-09-17T12:43:56.132Z,67.13
2023-09-17T12:44:56.107Z,66.93
2023-09-17T12:45:56.095Z,67.03
2023-09-17T12:46:56.156Z,67.53
2023-09-17T12:47:56.090Z,69.20
2023-09-17T12:48:56.046Z,68.79
2023-09-17T12:49:56.554Z,68.66
2023-09-17T12:50:56.030Z,68.73
2023-09-17T12:51:56.050Z,66.37